Time,TemperatureF,DewpointF,PressureIn,WindDirection,WindDirectionDegrees,WindSpeedMPH,WindSpeedGustMPH,Humidity,HourlyPrecipIn,Conditions,Clouds,dailyrainin,SoftwareType,DateUTC
2013-06-21 00:00:00,61.9,58.2,30.28,ENE,68,0.0,0.0,88,0.00,,,0.00,VWS V14.01,2013-06-21 04:00:00,
2013-06-21 00:01:00,62.8,58.2,30.28,ENE,68,0.0,0.0,85,0.00,,,0.00,VWS V14.01,2013-06-21 04:01:00,
2013-06-21 00:02:00,62.9,58.3,30.28,ENE,68,0.0,0.0,85,0.00,,,0.00,VWS V14.01,2013-06-21 04:02:00,
2013-06-21 00:03:00,61.8,58.1,30.28,ENE,68,0.0,0.0,88,0.00,,,0.00,VWS V14.01,2013-06-21 04:03:00,
2013-06-21 00:04:00,61.9,58.2,30.28,ENE,68,0.0,0.0,88,0.00,,,0.00,VWS V14.01,2013-06-21 04:04:00,
2013-06-21 00:05:00,62.8,58.4,30.28,ENE,68,0.0,0.0,85,0.00,,,0.00,VWS V14.01,2013-06-21 04:05:00,
2013-06-21 00:06:00,62.8,58.4,30.28,ENE,68,0.0,0.0,86,0.00,,,0.00,VWS V14.01,2013-06-21 04:06:00,
2013-06-21 00:07:00,62.1,58.4,30.28,ENE,68,0.0,0.0,88,0.00,,,0.00,VWS V14.01,2013-06-21 04:07:00,
2013-06-21 00:08:00,62.0,58.3,30.28,ENE,68,0.0,0.0,88,0.00,,,0.00,VWS V14.01,2013-06-21 04:08:00,
2013-06-21 00:09:00,62.0,58.4,30.28,ENE,68,0.0,0.0,88,0.00,,,0.00,VWS V14.01,2013-06-21 04:09:00,
2013-06-21 00:10:00,62.0,58.4,30.28,ENE,68,0.0,0.0,88,0.00,,,0.00,VWS V14.01,2013-06-21 04:10:00,
2013-06-21 00:11:00,62.7,58.4,30.28,ENE,68,0.0,0.0,86,0.00,,,0.00,VWS V14.01,2013-06-21 04:11:00,
2013-06-21 00:12:00,61.9,58.3,30.28,ENE,68,0.0,0.0,88,0.00,,,0.00,VWS V14.01,2013-06-21 04:12:00,
2013-06-21 00:13:00,61.9,58.3,30.28,ENE,68,0.0,0.0,88,0.00,,,0.00,VWS V14.01,2013-06-21 04:13:00,
2013-06-21 00:14:00,61.9,58.3,30.28,ENE,68,0.0,0.0,88,0.00,,,0.00,VWS V14.01,2013-06-21 04:14:00,
2013-06-21 00:15:00,62.0,58.5,30.28,ENE,68,0.0,0.0,88,0.00,,,0.00,VWS V14.01,2013-06-21 04:15:00,
2013-06-21 00:16:00,62.4,58.4,30.28,ENE,68,0.0,0.0,87,0.00,,,0.00,VWS V14.01,2013-06-21 04:16:00,
2013-06-21 00:17:00,61.8,58.3,30.28,ENE,68,0.0,0.0,88,0.00,,,0.00,VWS V14.01,2013-06-21 04:17:00,
2013-06-21 00:18:00,61.9,58.4,30.28,ENE,68,0.0,0.0,88,0.00,,,0.00,VWS V14.01,2013-06-21 04:18:00,
2013-06-21 00:19:00,61.9,58.4,30.28,ENE,68,0.0,0.0,88,0.00,,,0.00,VWS V14.01,2013-06-21 04:19:00,
2013-06-21 00:20:00,61.9,58.5,30.28,ENE,68,0.0,0.0,89,0.00,,,0.00,VWS V14.01,2013-06-21 04:20:00,
2013-06-21 00:21:00,62.3,58.4,30.28,ENE,68,0.0,0.0,87,0.00,,,0.00,VWS V14.01,2013-06-21 04:21:00,
2013-06-21 00:22:00,61.8,58.5,30.28,ENE,68,0.0,0.0,89,0.00,,,0.00,VWS V14.01,2013-06-21 04:22:00,
2013-06-21 00:23:00,61.8,58.6,30.28,ENE,68,0.0,0.0,89,0.00,,,0.00,VWS V14.01,2013-06-21 04:23:00,
2013-06-21 00:24:00,61.7,58.4,30.28,ENE,68,0.0,0.0,89,0.00,,,0.00,VWS V14.01,2013-06-21 04:24:00,
2013-06-21 00:25:00,61.7,58.4,30.28,ENE,68,0.0,0.0,89,0.00,,,0.00,VWS V14.01,2013-06-21 04:25:00,
2013-06-21 00:26:00,62.2,58.3,30.28,ENE,68,0.0,0.0,87,0.00,,,0.00,VWS V14.01,2013-06-21 04:26:00,
2013-06-21 00:27:00,61.8,58.5,30.28,ENE,68,0.0,0.0,89,0.00,,,0.00,VWS V14.01,2013-06-21 04:27:00,
2013-06-21 00:28:00,61.7,58.4,30.28,ENE,68,0.0,0.0,89,0.00,,,0.00,VWS V14.01,2013-06-21 04:28:00,
2013-06-21 00:29:00,61.8,58.5,30.28,ENE,68,0.0,0.0,89,0.00,,,0.00,VWS V14.01,2013-06-21 04:29:00,
2013-06-21 00:30:00,61.8,58.5,30.28,ENE,68,0.0,0.0,89,0.00,,,0.00,VWS V14.01,2013-06-21 04:30:00,
2013-06-21 00:31:00,62.2,58.3,30.28,ENE,68,0.0,0.0,87,0.00,,,0.00,VWS V14.01,2013-06-21 04:31:00,
2013-06-21 00:32:00,61.7,58.4,30.28,ENE,68,0.0,0.0,89,0.00,,,0.00,VWS V14.01,2013-06-21 04:32:00,
2013-06-21 00:33:00,61.8,58.5,30.28,ENE,68,0.0,0.0,89,0.00,,,0.00,VWS V14.01,2013-06-21 04:33:00,
2013-06-21 00:34:00,61.7,58.5,30.28,ENE,68,0.0,0.0,89,0.00,,,0.00,VWS V14.01,2013-06-21 04:34:00,
2013-06-21 00:35:00,61.9,58.8,30.28,ENE,68,0.0,0.0,89,0.00,,,0.00,VWS V14.01,2013-06-21 04:35:00,
2013-06-21 00:36:00,62.2,58.3,30.28,ENE,68,0.0,0.0,87,0.00,,,0.00,VWS V14.01,2013-06-21 04:36:00,
2013-06-21 00:37:00,61.7,58.6,30.28,ENE,68,0.0,0.0,89,0.00,,,0.00,VWS V14.01,2013-06-21 04:37:00,
2013-06-21 00:38:00,61.8,58.6,30.28,ENE,68,0.0,0.0,89,0.00,,,0.00,VWS V14.01,2013-06-21 04:38:00,
2013-06-21 00:39:00,61.9,58.7,30.28,ENE,68,0.0,0.0,89,0.00,,,0.00,VWS V14.01,2013-06-21 04:39:00,
2013-06-21 00:40:00,61.7,58.5,30.28,ENE,68,0.0,0.0,89,0.00,,,0.00,VWS V14.01,2013-06-21 04:40:00,
2013-06-21 00:41:00,61.9,58.1,30.28,ENE,68,0.0,0.0,87,0.00,,,0.00,VWS V14.01,2013-06-21 04:41:00,
2013-06-21 00:42:00,61.9,58.6,30.28,ENE,68,0.0,0.0,89,0.00,,,0.00,VWS V14.01,2013-06-21 04:42:00,
2013-06-21 00:44:00,61.7,58.4,30.28,ENE,68,0.0,0.0,89,0.00,,,0.00,VWS V14.01,2013-06-21 04:44:00,
2013-06-21 00:45:00,61.9,58.6,30.28,ENE,68,0.0,0.0,89,0.00,,,0.00,VWS V14.01,2013-06-21 04:45:00,
2013-06-21 00:46:00,62.1,58.3,30.28,ENE,68,0.0,0.0,88,0.00,,,0.00,VWS V14.01,2013-06-21 04:46:00,
2013-06-21 00:47:00,62.0,58.7,30.28,ENE,68,0.0,0.0,89,0.00,,,0.00,VWS V14.01,2013-06-21 04:47:00,
2013-06-21 00:49:00,62.0,58.7,30.28,ENE,68,0.0,0.0,89,0.00,,,0.00,VWS V14.01,2013-06-21 04:49:00,
2013-06-21 00:50:00,61.7,58.4,30.28,ENE,68,0.0,0.0,89,0.00,,,0.00,VWS V14.01,2013-06-21 04:50:00,
2013-06-21 00:51:00,61.9,58.2,30.28,ENE,68,0.0,0.0,88,0.00,,,0.00,VWS V14.01,2013-06-21 04:51:00,
2013-06-21 00:53:00,61.9,58.7,30.28,ENE,68,0.0,0.0,89,0.00,,,0.00,VWS V14.01,2013-06-21 04:53:00,
2013-06-21 00:55:00,61.7,58.5,30.28,ENE,68,0.0,0.0,89,0.00,,,0.00,VWS V14.01,2013-06-21 04:55:00,
2013-06-21 00:56:00,61.7,58.5,30.28,ENE,68,0.0,0.0,89,0.00,,,0.00,VWS V14.01,2013-06-21 04:56:00,
2013-06-21 00:58:00,61.6,58.5,30.28,ENE,68,0.0,0.0,89,0.00,,,0.00,VWS V14.01,2013-06-21 04:58:00,
2013-06-21 01:02:00,61.6,58.6,30.28,ENE,68,0.0,0.0,90,0.00,,,0.00,VWS V14.01,2013-06-21 05:02:00,
2013-06-21 01:04:00,61.7,58.7,30.28,ENE,68,0.0,0.0,90,0.00,,,0.00,VWS V14.01,2013-06-21 05:04:00,
2013-06-21 01:29:00,61.7,58.6,30.28,ENE,68,0.0,0.0,90,0.00,,,0.00,VWS V14.01,2013-06-21 05:29:00,
2013-06-21 01:35:00,61.8,58.5,30.28,ENE,68,0.0,0.0,89,0.00,,,0.00,VWS V14.01,2013-06-21 05:35:00,
2013-06-21 01:40:00,61.9,58.6,30.28,ENE,68,0.0,0.0,89,0.00,,,0.00,VWS V14.01,2013-06-21 05:40:00,
2013-06-21 01:45:00,61.9,58.6,30.28,ENE,68,0.0,0.0,89,0.00,,,0.00,VWS V14.01,2013-06-21 05:45:00,
2013-06-21 01:51:00,61.8,58.6,30.28,ENE,68,0.0,0.0,89,0.00,,,0.00,VWS V14.01,2013-06-21 05:51:00,
2013-06-21 01:56:00,61.5,58.5,30.28,ENE,68,0.0,0.0,90,0.00,,,0.00,VWS V14.01,2013-06-21 05:56:00,
2013-06-21 02:01:00,61.6,58.6,30.28,ENE,68,0.0,0.0,90,0.00,,,0.00,VWS V14.01,2013-06-21 06:01:00,
2013-06-21 02:06:00,61.5,58.5,30.28,ENE,68,0.0,0.0,90,0.00,,,0.00,VWS V14.01,2013-06-21 06:06:00,
2013-06-21 02:11:00,61.5,58.5,30.28,ENE,68,0.0,0.0,90,0.00,,,0.00,VWS V14.01,2013-06-21 06:11:00,
2013-06-21 02:16:00,61.5,58.7,30.28,ENE,68,0.0,0.0,90,0.00,,,0.00,VWS V14.01,2013-06-21 06:16:00,
2013-06-21 02:21:00,61.3,58.6,30.28,ENE,68,0.0,0.0,91,0.00,,,0.00,VWS V14.01,2013-06-21 06:21:00,
2013-06-21 02:26:00,61.4,58.6,30.28,ENE,68,0.0,0.0,91,0.00,,,0.00,VWS V14.01,2013-06-21 06:26:00,
2013-06-21 02:31:00,61.3,58.6,30.28,ENE,68,0.0,0.0,91,0.00,,,0.00,VWS V14.01,2013-06-21 06:31:00,
2013-06-21 02:36:00,61.3,58.5,30.28,ENE,68,0.0,0.0,91,0.00,,,0.00,VWS V14.01,2013-06-21 06:36:00,
2013-06-21 02:41:00,61.4,58.6,30.28,ENE,68,0.0,0.0,90,0.00,,,0.00,VWS V14.01,2013-06-21 06:41:00,
2013-06-21 02:46:00,61.4,58.6,30.28,ENE,68,0.0,0.0,91,0.00,,,0.00,VWS V14.01,2013-06-21 06:46:00,
2013-06-21 02:51:00,61.2,58.4,30.28,ENE,68,0.0,0.0,91,0.00,,,0.00,VWS V14.01,2013-06-21 06:51:00,
2013-06-21 02:56:00,61.2,58.4,30.28,ENE,68,0.0,0.0,90,0.00,,,0.00,VWS V14.01,2013-06-21 06:56:00,
2013-06-21 03:02:00,61.1,58.5,30.28,ENE,68,0.0,0.0,91,0.00,,,0.00,VWS V14.01,2013-06-21 07:02:00,
2013-06-21 03:07:00,61.0,58.6,30.28,ENE,68,0.0,0.0,92,0.00,,,0.00,VWS V14.01,2013-06-21 07:07:00,
2013-06-21 03:12:00,61.1,58.6,30.28,ENE,68,0.0,0.0,92,0.00,,,0.00,VWS V14.01,2013-06-21 07:12:00,
2013-06-21 03:17:00,61.0,58.5,30.28,ENE,68,0.0,0.0,91,0.00,,,0.00,VWS V14.01,2013-06-21 07:17:00,
2013-06-21 03:22:00,61.1,58.4,30.28,ENE,68,0.0,0.0,91,0.00,,,0.00,VWS V14.01,2013-06-21 07:22:00,
2013-06-21 03:27:00,60.9,58.3,30.28,ENE,68,0.0,0.0,91,0.00,,,0.00,VWS V14.01,2013-06-21 07:27:00,
2013-06-21 03:32:00,60.6,58.1,30.28,ENE,68,0.0,0.0,92,0.00,,,0.00,VWS V14.01,2013-06-21 07:32:00,
2013-06-21 03:37:00,60.6,58.1,30.28,ENE,68,0.0,0.0,92,0.00,,,0.00,VWS V14.01,2013-06-21 07:37:00,
2013-06-21 03:42:00,60.6,58.1,30.28,ENE,68,0.0,0.0,92,0.00,,,0.00,VWS V14.01,2013-06-21 07:42:00,
2013-06-21 03:47:00,60.4,57.9,30.28,ENE,68,0.0,0.0,91,0.00,,,0.00,VWS V14.01,2013-06-21 07:47:00,
2013-06-21 03:52:00,60.4,57.9,30.28,ENE,68,0.0,0.0,91,0.00,,,0.00,VWS V14.01,2013-06-21 07:52:00,
2013-06-21 03:57:00,60.4,57.9,30.28,ENE,68,0.0,0.0,92,0.00,,,0.00,VWS V14.01,2013-06-21 07:57:00,
2013-06-21 04:02:00,60.4,58.1,30.28,ENE,68,0.0,0.0,92,0.00,,,0.00,VWS V14.01,2013-06-21 08:02:00,
2013-06-21 04:07:00,60.4,58.1,30.28,ENE,68,0.0,0.0,92,0.00,,,0.00,VWS V14.01,2013-06-21 08:07:00,
2013-06-21 04:12:00,60.4,58.2,30.28,ENE,68,0.0,0.0,92,0.00,,,0.00,VWS V14.01,2013-06-21 08:12:00,
2013-06-21 04:17:00,60.3,58.1,30.28,ENE,68,0.0,0.0,92,0.00,,,0.00,VWS V14.01,2013-06-21 08:17:00,
2013-06-21 04:22:00,60.4,58.2,30.28,ENE,68,0.0,0.0,92,0.00,,,0.00,VWS V14.01,2013-06-21 08:22:00,
2013-06-21 04:27:00,60.5,58.2,30.28,ENE,68,0.0,0.0,92,0.00,,,0.00,VWS V14.01,2013-06-21 08:27:00,
2013-06-21 04:32:00,60.4,58.1,30.28,ENE,68,0.0,0.0,92,0.00,,,0.00,VWS V14.01,2013-06-21 08:32:00,
2013-06-21 04:37:00,60.4,58.2,30.28,ENE,68,0.0,0.0,92,0.00,,,0.00,VWS V14.01,2013-06-21 08:37:00,
2013-06-21 04:42:00,60.3,58.0,30.28,ENE,68,0.0,0.0,92,0.00,,,0.00,VWS V14.01,2013-06-21 08:42:00,
2013-06-21 04:47:00,60.2,57.9,30.28,ENE,68,0.0,0.0,92,0.00,,,0.00,VWS V14.01,2013-06-21 08:47:00,
2013-06-21 04:52:00,60.3,58.1,30.28,ENE,68,0.0,0.0,92,0.00,,,0.00,VWS V14.01,2013-06-21 08:52:00,
2013-06-21 04:57:00,60.1,57.9,30.29,ENE,68,0.0,0.0,92,0.00,,,0.00,VWS V14.01,2013-06-21 08:57:00,
2013-06-21 05:02:00,60.1,58.0,30.29,ENE,68,0.0,0.0,93,0.00,,,0.00,VWS V14.01,2013-06-21 09:02:00,
2013-06-21 05:08:00,60.2,58.1,30.29,ENE,68,0.0,0.0,93,0.00,,,0.00,VWS V14.01,2013-06-21 09:08:00,
2013-06-21 05:13:00,60.1,58.1,30.29,ENE,68,0.0,0.0,93,0.00,,,0.00,VWS V14.01,2013-06-21 09:13:00,
2013-06-21 05:18:00,60.0,58.0,30.29,ENE,68,0.0,0.0,93,0.00,,,0.00,VWS V14.01,2013-06-21 09:18:00,
2013-06-21 05:23:00,60.1,58.1,30.29,ENE,68,0.0,0.0,93,0.00,,,0.00,VWS V14.01,2013-06-21 09:23:00,
2013-06-21 05:28:00,59.8,57.9,30.29,ENE,68,0.0,0.0,94,0.00,,,0.00,VWS V14.01,2013-06-21 09:28:00,
2013-06-21 05:33:00,59.9,58.0,30.29,ENE,68,0.0,0.0,94,0.00,,,0.00,VWS V14.01,2013-06-21 09:33:00,
2013-06-21 05:38:00,59.9,58.0,30.30,ENE,68,0.0,0.0,94,0.00,,,0.00,VWS V14.01,2013-06-21 09:38:00,
2013-06-21 05:43:00,60.0,58.2,30.30,ENE,68,0.0,0.0,94,0.00,,,0.00,VWS V14.01,2013-06-21 09:43:00,
2013-06-21 05:48:00,60.1,58.2,30.30,ENE,68,0.0,0.0,93,0.00,,,0.00,VWS V14.01,2013-06-21 09:48:00,
2013-06-21 05:53:00,59.9,58.0,30.30,ENE,68,0.0,0.0,94,0.00,,,0.00,VWS V14.01,2013-06-21 09:53:00,
2013-06-21 05:58:00,59.8,57.9,30.30,ENE,68,0.0,0.0,94,0.00,,,0.00,VWS V14.01,2013-06-21 09:58:00,
2013-06-21 06:03:00,60.0,58.1,30.30,ENE,68,0.0,0.0,94,0.00,,,0.00,VWS V14.01,2013-06-21 10:03:00,
2013-06-21 06:08:00,59.9,58.0,30.30,ENE,68,0.0,0.0,94,0.00,,,0.00,VWS V14.01,2013-06-21 10:08:00,
2013-06-21 06:13:00,59.9,58.1,30.30,ENE,68,0.0,0.0,94,0.00,,,0.00,VWS V14.01,2013-06-21 10:13:00,
2013-06-21 06:18:00,60.1,58.3,30.30,ENE,68,0.0,0.0,94,0.00,,,0.00,VWS V14.01,2013-06-21 10:18:00,
2013-06-21 06:23:00,60.2,58.5,30.30,ENE,68,0.0,0.0,94,0.00,,,0.00,VWS V14.01,2013-06-21 10:23:00,
2013-06-21 06:28:00,60.1,58.5,30.30,ENE,68,0.0,0.0,94,0.00,,,0.00,VWS V14.01,2013-06-21 10:28:00,
2013-06-21 06:33:00,60.3,58.8,30.30,ENE,68,0.0,0.0,95,0.00,,,0.00,VWS V14.01,2013-06-21 10:33:00,
2013-06-21 06:38:00,60.3,58.8,30.30,ENE,68,0.0,0.0,95,0.00,,,0.00,VWS V14.01,2013-06-21 10:38:00,
2013-06-21 06:43:00,60.3,58.8,30.30,ENE,68,0.0,0.0,95,0.00,,,0.00,VWS V14.01,2013-06-21 10:43:00,
2013-06-21 06:48:00,60.5,58.9,30.30,ENE,68,0.0,0.0,94,0.00,,,0.00,VWS V14.01,2013-06-21 10:48:00,
2013-06-21 06:53:00,60.5,58.9,30.30,ENE,68,0.0,0.0,94,0.00,,,0.00,VWS V14.01,2013-06-21 10:53:00,
2013-06-21 06:58:00,60.6,59.0,30.30,ENE,68,0.0,0.0,94,0.00,,,0.00,VWS V14.01,2013-06-21 10:58:00,
2013-06-21 07:03:00,60.8,59.2,30.30,ENE,68,0.0,0.0,95,0.00,,,0.00,VWS V14.01,2013-06-21 11:03:00,
2013-06-21 07:08:00,60.9,59.3,30.31,ENE,68,0.0,0.0,95,0.00,,,0.00,VWS V14.01,2013-06-21 11:08:00,
2013-06-21 07:14:00,61.0,59.5,30.31,ENE,68,0.0,0.0,95,0.00,,,0.00,VWS V14.01,2013-06-21 11:14:00,
2013-06-21 07:19:00,61.1,59.6,30.30,ENE,68,0.0,0.0,95,0.00,,,0.00,VWS V14.01,2013-06-21 11:19:00,
2013-06-21 07:24:00,61.3,59.8,30.30,ENE,68,0.0,0.0,95,0.00,,,0.00,VWS V14.01,2013-06-21 11:24:00,
2013-06-21 07:29:00,61.5,60.0,30.31,ENE,68,0.0,0.0,95,0.00,,,0.00,VWS V14.01,2013-06-21 11:29:00,
2013-06-21 07:34:00,61.7,60.2,30.30,ENE,68,0.0,0.0,95,0.00,,,0.00,VWS V14.01,2013-06-21 11:34:00,
2013-06-21 07:39:00,61.9,60.5,30.30,ENE,68,0.0,0.0,95,0.00,,,0.00,VWS V14.01,2013-06-21 11:39:00,
2013-06-21 07:44:00,62.1,60.7,30.30,ENE,68,0.0,0.0,95,0.00,,,0.00,VWS V14.01,2013-06-21 11:44:00,
2013-06-21 07:49:00,62.3,60.9,30.30,ENE,68,0.0,0.0,95,0.00,,,0.00,VWS V14.01,2013-06-21 11:49:00,
2013-06-21 07:54:00,62.5,61.1,30.31,ENE,68,0.0,0.0,95,0.00,,,0.00,VWS V14.01,2013-06-21 11:54:00,
2013-06-21 07:59:00,62.6,61.1,30.31,ENE,68,0.0,0.0,95,0.00,,,0.00,VWS V14.01,2013-06-21 11:59:00,
2013-06-21 08:04:00,62.8,61.1,30.31,ENE,68,0.0,0.0,94,0.00,,,0.00,VWS V14.01,2013-06-21 12:04:00,
2013-06-21 08:09:00,62.7,60.9,30.31,ENE,68,0.0,0.0,94,0.00,,,0.00,VWS V14.01,2013-06-21 12:09:00,
2013-06-21 08:14:00,62.9,61.1,30.31,ENE,68,0.0,0.0,94,0.00,,,0.00,VWS V14.01,2013-06-21 12:14:00,
2013-06-21 08:19:00,63.0,60.8,30.32,ENE,68,0.0,0.0,93,0.00,,,0.00,VWS V14.01,2013-06-21 12:19:00,
2013-06-21 08:24:00,63.3,60.9,30.32,ENE,68,0.0,0.0,92,0.00,,,0.00,VWS V14.01,2013-06-21 12:24:00,
2013-06-21 08:29:00,63.4,60.6,30.32,ENE,68,0.0,0.0,91,0.00,,,0.00,VWS V14.01,2013-06-21 12:29:00,
2013-06-21 08:34:00,63.7,60.0,30.32,ENE,68,0.0,0.0,88,0.00,,,0.00,VWS V14.01,2013-06-21 12:34:00,
2013-06-21 08:39:00,63.9,59.3,30.32,ENE,68,0.0,0.0,85,0.00,,,0.00,VWS V14.01,2013-06-21 12:39:00,
2013-06-21 08:44:00,64.1,58.4,30.32,ENE,68,0.0,0.0,82,0.00,,,0.00,VWS V14.01,2013-06-21 12:44:00,
2013-06-21 08:49:00,64.2,57.4,30.32,ENE,68,0.0,0.0,79,0.00,,,0.00,VWS V14.01,2013-06-21 12:49:00,
2013-06-21 08:55:00,64.4,57.0,30.32,ENE,68,0.0,0.0,77,0.00,,,0.00,VWS V14.01,2013-06-21 12:55:00,
2013-06-21 09:00:00,64.7,57.3,30.32,ENE,68,0.0,0.0,77,0.00,,,0.00,VWS V14.01,2013-06-21 13:00:00,
2013-06-21 09:05:00,65.1,56.6,30.32,ENE,68,0.0,0.0,74,0.00,,,0.00,VWS V14.01,2013-06-21 13:05:00,
2013-06-21 09:10:00,65.3,56.5,30.32,ENE,68,0.0,0.0,73,0.00,,,0.00,VWS V14.01,2013-06-21 13:10:00,
2013-06-21 09:15:00,65.5,56.1,30.32,ENE,68,0.0,0.0,72,0.00,,,0.00,VWS V14.01,2013-06-21 13:15:00,
2013-06-21 09:20:00,65.9,55.9,30.32,ENE,68,0.0,0.0,70,0.00,,,0.00,VWS V14.01,2013-06-21 13:20:00,
2013-06-21 09:25:00,66.1,56.2,30.32,ENE,68,0.0,0.0,70,0.00,,,0.00,VWS V14.01,2013-06-21 13:25:00,
2013-06-21 09:30:00,66.4,56.6,30.31,ENE,68,0.0,0.0,71,0.00,,,0.00,VWS V14.01,2013-06-21 13:30:00,
2013-06-21 09:35:00,66.4,56.2,30.31,ENE,68,0.0,0.0,70,0.00,,,0.00,VWS V14.01,2013-06-21 13:35:00,
2013-06-21 09:41:00,66.7,56.5,30.32,ENE,68,0.0,0.0,70,0.00,,,0.00,VWS V14.01,2013-06-21 13:41:00,
2013-06-21 09:46:00,66.9,56.4,30.32,ENE,68,0.0,0.0,69,0.00,,,0.00,VWS V14.01,2013-06-21 13:46:00,
2013-06-21 09:51:00,67.1,56.6,30.32,ENE,68,0.0,0.0,69,0.00,,,0.00,VWS V14.01,2013-06-21 13:51:00,
2013-06-21 09:56:00,67.3,56.8,30.32,NNE,27,1.3,3.9,69,0.00,,,0.00,VWS V14.01,2013-06-21 13:56:00,
2013-06-21 10:01:00,67.2,55.2,30.32,NNW,339,1.1,9.9,65,0.00,,,0.00,VWS V14.01,2013-06-21 14:01:00,
2013-06-21 10:06:00,67.1,54.3,30.31,NNE,13,0.0,9.9,64,0.00,,,0.00,VWS V14.01,2013-06-21 14:06:00,
2013-06-21 10:11:00,67.5,54.7,30.31,North,350,0.0,13.2,64,0.00,,,0.00,VWS V14.01,2013-06-21 14:11:00,
2013-06-21 10:16:00,67.9,54.4,30.31,SSE,148,2.2,13.2,62,0.00,,,0.00,VWS V14.01,2013-06-21 14:16:00,
2013-06-21 10:21:00,68.3,53.6,30.32,NNE,21,1.9,13.2,59,0.00,,,0.00,VWS V14.01,2013-06-21 14:21:00,
2013-06-21 10:26:00,68.5,55.0,30.32,NNE,24,0.0,13.2,62,0.00,,,0.00,VWS V14.01,2013-06-21 14:26:00,
2013-06-21 10:31:00,68.7,54.6,30.31,ENE,63,4.3,13.2,61,0.00,,,0.00,VWS V14.01,2013-06-21 14:31:00,
2013-06-21 10:36:00,69.0,53.9,30.31,North,8,4.3,13.2,59,0.00,,,0.00,VWS V14.01,2013-06-21 14:36:00,
2013-06-21 10:41:00,69.1,54.3,30.32,NNE,15,3.4,13.2,59,0.00,,,0.00,VWS V14.01,2013-06-21 14:41:00,
2013-06-21 10:46:00,69.1,54.2,30.32,NE,46,0.0,13.2,59,0.00,,,0.00,VWS V14.01,2013-06-21 14:46:00,
2013-06-21 10:51:00,69.3,54.2,30.32,NW,322,5.8,13.2,59,0.00,,,0.00,VWS V14.01,2013-06-21 14:51:00,
2013-06-21 10:57:00,69.4,54.0,30.32,North,7,3.7,13.8,58,0.00,,,0.00,VWS V14.01,2013-06-21 14:57:00,
2013-06-21 11:02:00,69.6,54.1,30.33,ESE,122,5.4,13.8,58,0.00,,,0.00,VWS V14.01,2013-06-21 15:02:00,
2013-06-21 11:07:00,70.0,54.2,30.33,NNE,18,3.4,13.8,57,0.00,,,0.00,VWS V14.01,2013-06-21 15:07:00,
2013-06-21 11:12:00,70.2,54.2,30.32,East,80,0.0,13.8,57,0.00,,,0.00,VWS V14.01,2013-06-21 15:12:00,
2013-06-21 11:17:00,70.4,54.3,30.33,North,349,0.0,13.8,57,0.00,,,0.00,VWS V14.01,2013-06-21 15:17:00,
2013-06-21 11:23:00,70.6,54.2,30.33,North,10,2.8,13.8,56,0.00,,,0.00,VWS V14.01,2013-06-21 15:23:00,
2013-06-21 11:28:00,70.7,54.0,30.33,SW,226,6.7,13.8,55,0.00,,,0.00,VWS V14.01,2013-06-21 15:28:00,
2013-06-21 11:33:00,70.9,54.0,30.33,NNW,328,14.4,14.7,55,0.00,,,0.00,VWS V14.01,2013-06-21 15:33:00,
2013-06-21 11:38:00,71.0,54.4,30.33,North,7,7.6,14.7,56,0.00,,,0.00,VWS V14.01,2013-06-21 15:38:00,
2013-06-21 11:43:00,71.1,54.3,30.33,ENE,65,8.2,17.0,55,0.00,,,0.00,VWS V14.01,2013-06-21 15:43:00,
2013-06-21 11:48:00,71.2,54.7,30.33,East,97,2.4,17.0,56,0.00,,,0.00,VWS V14.01,2013-06-21 15:48:00,
2013-06-21 11:53:00,71.4,54.6,30.33,NE,53,7.3,7.5,55,0.00,,,0.00,VWS V14.01,2013-06-21 15:53:00,
2013-06-21 11:58:00,71.5,54.0,30.33,NE,51,3.5,12.1,54,0.00,,,0.00,VWS V14.01,2013-06-21 15:58:00,
2013-06-21 12:03:00,71.6,54.3,30.33,NNE,22,0.0,12.1,54,0.00,,,0.00,VWS V14.01,2013-06-21 16:03:00,
2013-06-21 12:08:00,71.7,53.9,30.33,NW,311,11.6,13.2,53,0.00,,,0.00,VWS V14.01,2013-06-21 16:08:00,
2013-06-21 12:14:00,71.7,53.9,30.32,North,353,7.1,13.2,54,0.00,,,0.00,VWS V14.01,2013-06-21 16:14:00,
2013-06-21 12:19:00,71.9,54.5,30.32,NW,322,2.1,13.2,54,0.00,,,0.00,VWS V14.01,2013-06-21 16:19:00,
2013-06-21 12:24:00,71.8,53.5,30.32,NNW,340,3.0,13.2,52,0.00,,,0.00,VWS V14.01,2013-06-21 16:24:00,
2013-06-21 12:29:00,72.0,54.4,30.32,SW,228,4.3,13.2,54,0.00,,,0.00,VWS V14.01,2013-06-21 16:29:00,
2013-06-21 12:34:00,72.1,54.0,30.33,SSW,208,0.0,13.2,53,0.00,,,0.00,VWS V14.01,2013-06-21 16:34:00,
2013-06-21 12:39:00,72.0,54.4,30.32,NW,309,4.7,13.2,54,0.00,,,0.00,VWS V14.01,2013-06-21 16:39:00,
2013-06-21 12:44:00,72.2,54.5,30.32,East,83,0.0,13.2,54,0.00,,,0.00,VWS V14.01,2013-06-21 16:44:00,
2013-06-21 12:50:00,72.3,54.8,30.32,SSW,208,3.0,13.2,54,0.00,,,0.00,VWS V14.01,2013-06-21 16:50:00,
2013-06-21 12:53:00,73.9,55.5,30.33,SSE,160,0.0,15.8,52,0.00,,,0.00,VWS V14.01,2013-06-21 16:53:00,
2013-06-21 12:54:00,73.9,55.5,30.33,ENE,58,0.0,15.8,52,0.00,,,0.00,VWS V14.01,2013-06-21 16:54:00,
2013-06-21 12:55:00,72.8,53.6,30.32,East,94,10.6,15.1,51,0.00,,,0.00,VWS V14.01,2013-06-21 16:55:00,
2013-06-21 12:56:00,73.9,55.7,30.33,NNE,31,3.9,15.8,53,0.00,,,0.00,VWS V14.01,2013-06-21 16:56:00,
2013-06-21 12:57:00,73.9,55.5,30.33,East,89,8.2,15.8,52,0.00,,,0.00,VWS V14.01,2013-06-21 16:57:00,
2013-06-21 12:58:00,73.8,54.9,30.33,North,3,4.5,15.8,52,0.00,,,0.00,VWS V14.01,2013-06-21 16:58:00,
2013-06-21 12:59:00,73.8,55.1,30.33,SSE,159,6.5,15.8,52,0.00,,,0.00,VWS V14.01,2013-06-21 16:59:00,
2013-06-21 13:00:00,72.7,53.5,30.32,North,8,1.7,15.1,51,0.00,,,0.00,VWS V14.01,2013-06-21 17:00:00,
2013-06-21 13:01:00,73.7,55.5,30.32,ENE,63,0.0,0.0,53,0.00,,,0.00,VWS V14.01,2013-06-21 17:01:00,
2013-06-21 13:02:00,73.7,55.6,30.32,SSE,166,2.6,3.5,53,0.00,,,0.00,VWS V14.01,2013-06-21 17:02:00,
2013-06-21 13:03:00,73.6,55.6,30.32,SSW,212,9.5,9.5,53,0.00,,,0.00,VWS V14.01,2013-06-21 17:03:00,
2013-06-21 13:04:00,73.7,55.8,30.32,SSW,201,8.6,9.7,54,0.00,,,0.00,VWS V14.01,2013-06-21 17:04:00,
2013-06-21 13:05:00,72.9,54.3,30.33,NE,39,0.0,15.1,52,0.00,,,0.00,VWS V14.01,2013-06-21 17:05:00,
2013-06-21 13:07:00,73.6,55.8,30.32,SW,225,9.3,14.7,54,0.00,,,0.00,VWS V14.01,2013-06-21 17:07:00,
2013-06-21 13:08:00,73.7,55.9,30.32,WSW,253,3.4,14.7,54,0.00,,,0.00,VWS V14.01,2013-06-21 17:08:00,
2013-06-21 13:09:00,73.6,55.7,30.32,WSW,249,9.5,14.7,54,0.00,,,0.00,VWS V14.01,2013-06-21 17:09:00,
2013-06-21 13:10:00,73.7,55.6,30.32,SSW,211,7.8,14.7,53,0.00,,,0.00,VWS V14.01,2013-06-21 17:10:00,
2013-06-21 13:11:00,73.8,55.7,30.32,SSW,205,5.6,14.7,53,0.00,,,0.00,VWS V14.01,2013-06-21 17:11:00,
2013-06-21 13:12:00,73.4,54.5,30.33,SW,221,9.7,15.1,52,0.00,,,0.00,VWS V14.01,2013-06-21 17:12:00,
2013-06-21 13:14:00,73.9,55.8,30.31,WSW,240,5.2,14.7,53,0.00,,,0.00,VWS V14.01,2013-06-21 17:14:00,
2013-06-21 13:15:00,73.8,55.9,30.31,WSW,253,0.0,14.7,54,0.00,,,0.00,VWS V14.01,2013-06-21 17:15:00,
2013-06-21 13:16:00,73.8,56.2,30.31,WSW,253,1.5,14.7,54,0.00,,,0.00,VWS V14.01,2013-06-21 17:16:00,
2013-06-21 13:17:00,73.7,53.5,30.33,SE,146,2.2,15.1,49,0.00,,,0.00,VWS V14.01,2013-06-21 17:17:00,
2013-06-21 13:18:00,73.9,56.4,30.32,South,179,0.0,14.7,54,0.00,,,0.00,VWS V14.01,2013-06-21 17:18:00,
2013-06-21 13:19:00,73.9,56.0,30.32,South,179,0.0,14.7,54,0.00,,,0.00,VWS V14.01,2013-06-21 17:19:00,
2013-06-21 13:20:00,73.9,56.0,30.32,SSE,158,1.3,14.7,54,0.00,,,0.00,VWS V14.01,2013-06-21 17:20:00,
2013-06-21 13:22:00,73.8,53.9,30.33,North,350,0.0,15.1,50,0.00,,,0.00,VWS V14.01,2013-06-21 17:22:00,
2013-06-21 13:23:00,74.1,55.9,30.32,South,187,10.1,14.7,53,0.00,,,0.00,VWS V14.01,2013-06-21 17:23:00,
2013-06-21 13:24:00,74.1,55.9,30.32,SSE,163,3.0,14.7,53,0.00,,,0.00,VWS V14.01,2013-06-21 17:24:00,
2013-06-21 13:25:00,74.2,55.6,30.32,SSW,193,8.2,15.3,52,0.00,,,0.00,VWS V14.01,2013-06-21 17:25:00,
2013-06-21 13:26:00,74.2,55.4,30.31,SSW,197,8.9,15.3,52,0.00,,,0.00,VWS V14.01,2013-06-21 17:26:00,
2013-06-21 13:27:00,74.2,55.6,30.32,SSW,195,10.1,15.3,52,0.00,,,0.00,VWS V14.01,2013-06-21 17:27:00,
2013-06-21 13:28:00,73.4,53.7,30.33,East,90,6.0,15.1,50,0.00,,,0.00,VWS V14.01,2013-06-21 17:28:00,
2013-06-21 13:29:00,74.3,55.9,30.31,SSW,210,7.3,15.3,53,0.00,,,0.00,VWS V14.01,2013-06-21 17:29:00,
2013-06-21 13:30:00,74.7,55.9,30.31,South,179,8.2,15.3,52,0.00,,,0.00,VWS V14.01,2013-06-21 17:30:00,
2013-06-21 13:31:00,74.6,55.7,30.31,South,181,6.5,15.3,52,0.00,,,0.00,VWS V14.01,2013-06-21 17:31:00,
2013-06-21 13:32:00,74.7,55.9,30.31,SSW,194,7.6,15.3,52,0.00,,,0.00,VWS V14.01,2013-06-21 17:32:00,
2013-06-21 13:33:00,74.7,56.3,30.31,SSW,204,4.8,15.3,53,0.00,,,0.00,VWS V14.01,2013-06-21 17:33:00,
2013-06-21 13:34:00,73.3,54.8,30.33,WSW,253,2.2,15.8,52,0.00,,,0.00,VWS V14.01,2013-06-21 17:34:00,
2013-06-21 13:35:00,74.7,56.5,30.31,SW,224,1.5,15.3,53,0.00,,,0.00,VWS V14.01,2013-06-21 17:35:00,
2013-06-21 13:36:00,74.9,56.6,30.31,South,183,3.9,15.3,53,0.00,,,0.00,VWS V14.01,2013-06-21 17:36:00,
2013-06-21 13:37:00,74.9,56.8,30.31,South,173,5.2,15.3,53,0.00,,,0.00,VWS V14.01,2013-06-21 17:37:00,
2013-06-21 13:38:00,75.0,57.4,30.31,SSW,204,7.3,15.3,54,0.00,,,0.00,VWS V14.01,2013-06-21 17:38:00,
2013-06-21 13:39:00,73.4,53.7,30.32,SSW,197,0.0,15.8,50,0.00,,,0.00,VWS V14.01,2013-06-21 17:39:00,
2013-06-21 13:40:00,75.0,57.2,30.31,SSE,158,0.0,15.3,54,0.00,,,0.00,VWS V14.01,2013-06-21 17:40:00,
2013-06-21 13:41:00,75.0,57.0,30.31,SSE,158,0.0,15.3,54,0.00,,,0.00,VWS V14.01,2013-06-21 17:41:00,
2013-06-21 13:42:00,75.1,55.8,30.31,SSE,158,0.0,15.3,51,0.00,,,0.00,VWS V14.01,2013-06-21 17:42:00,
2013-06-21 13:43:00,75.0,55.6,30.31,SSE,158,0.0,15.3,51,0.00,,,0.00,VWS V14.01,2013-06-21 17:43:00,
2013-06-21 13:44:00,75.2,56.4,30.31,SSE,158,0.0,15.3,52,0.00,,,0.00,VWS V14.01,2013-06-21 17:44:00,
2013-06-21 13:45:00,73.9,55.2,30.33,SSE,160,0.0,15.8,52,0.00,,,0.00,VWS V14.01,2013-06-21 17:45:00,
2013-06-21 13:46:00,75.1,56.1,30.31,SSW,207,6.5,15.3,52,0.00,,,0.00,VWS V14.01,2013-06-21 17:46:00,
2013-06-21 13:47:00,75.3,56.6,30.31,WSW,257,0.0,15.3,52,0.00,,,0.00,VWS V14.01,2013-06-21 17:47:00,
2013-06-21 13:48:00,75.3,56.8,30.30,WSW,257,0.0,15.3,53,0.00,,,0.00,VWS V14.01,2013-06-21 17:48:00,
2013-06-21 13:49:00,75.3,56.9,30.30,WSW,257,0.0,15.3,53,0.00,,,0.00,VWS V14.01,2013-06-21 17:49:00,
2013-06-21 13:50:00,75.3,56.1,30.31,NW,309,5.4,15.3,51,0.00,,,0.00,VWS V14.01,2013-06-21 17:50:00,
2013-06-21 13:52:00,75.2,54.1,30.30,West,266,4.3,15.3,48,0.00,,,0.00,VWS V14.01,2013-06-21 17:52:00,
2013-06-21 13:53:00,75.3,54.3,30.30,West,274,4.1,15.3,48,0.00,,,0.00,VWS V14.01,2013-06-21 17:53:00,
2013-06-21 13:54:00,75.2,54.5,30.31,West,267,3.4,15.3,48,0.00,,,0.00,VWS V14.01,2013-06-21 17:54:00,
2013-06-21 13:55:00,75.3,54.7,30.31,West,264,0.0,15.3,49,0.00,,,0.00,VWS V14.01,2013-06-21 17:55:00,
2013-06-21 13:56:00,75.4,54.9,30.31,West,264,0.0,15.3,49,0.00,,,0.00,VWS V14.01,2013-06-21 17:56:00,
2013-06-21 13:57:00,75.4,55.2,30.31,West,264,0.0,15.3,49,0.00,,,0.00,VWS V14.01,2013-06-21 17:57:00,
2013-06-21 13:58:00,75.4,54.4,30.31,West,264,0.0,15.3,48,0.00,,,0.00,VWS V14.01,2013-06-21 17:58:00,
2013-06-21 13:59:00,75.4,54.6,30.31,West,264,0.0,15.3,48,0.00,,,0.00,VWS V14.01,2013-06-21 17:59:00,
2013-06-21 14:00:00,75.3,55.1,30.31,West,263,5.6,5.6,49,0.00,,,0.00,VWS V14.01,2013-06-21 18:00:00,
2013-06-21 14:01:00,75.4,55.6,30.31,West,267,2.8,6.3,50,0.00,,,0.00,VWS V14.01,2013-06-21 18:01:00,
2013-06-21 14:02:00,75.5,55.7,30.31,ESE,110,9.3,10.4,50,0.00,,,0.00,VWS V14.01,2013-06-21 18:02:00,
2013-06-21 14:03:00,75.5,55.2,30.30,East,90,9.3,10.6,49,0.00,,,0.00,VWS V14.01,2013-06-21 18:03:00,
2013-06-21 14:04:00,75.5,54.3,30.31,ENE,77,2.2,10.6,48,0.00,,,0.00,VWS V14.01,2013-06-21 18:04:00,
2013-06-21 14:05:00,75.7,54.7,30.30,SSE,162,4.8,10.6,48,0.00,,,0.00,VWS V14.01,2013-06-21 18:05:00,
2013-06-21 14:06:00,75.5,54.8,30.31,South,176,0.0,10.6,49,0.00,,,0.00,VWS V14.01,2013-06-21 18:06:00,
2013-06-21 14:07:00,75.4,55.3,30.30,SSW,202,2.8,10.6,50,0.00,,,0.00,VWS V14.01,2013-06-21 18:07:00,
2013-06-21 14:09:00,75.4,54.7,30.31,SSW,193,0.0,10.6,49,0.00,,,0.00,VWS V14.01,2013-06-21 18:09:00,
2013-06-21 14:10:00,75.4,55.0,30.31,SSW,193,0.0,10.6,49,0.00,,,0.00,VWS V14.01,2013-06-21 18:10:00,
2013-06-21 14:11:00,75.5,55.5,30.31,SW,221,1.1,10.6,50,0.00,,,0.00,VWS V14.01,2013-06-21 18:11:00,
2013-06-21 14:12:00,75.4,55.7,30.31,SW,221,0.0,10.6,50,0.00,,,0.00,VWS V14.01,2013-06-21 18:12:00,
2013-06-21 14:13:00,75.4,55.7,30.31,SW,221,0.0,10.6,50,0.00,,,0.00,VWS V14.01,2013-06-21 18:13:00,
2013-06-21 14:14:00,75.4,56.0,30.31,SW,221,0.0,10.6,51,0.00,,,0.00,VWS V14.01,2013-06-21 18:14:00,
2013-06-21 14:15:00,75.4,56.0,30.31,SW,221,0.0,10.6,51,0.00,,,0.00,VWS V14.01,2013-06-21 18:15:00,
2013-06-21 14:16:00,75.4,55.7,30.31,SW,221,0.0,10.6,50,0.00,,,0.00,VWS V14.01,2013-06-21 18:16:00,
2013-06-21 14:17:00,75.7,56.2,30.31,NNE,27,4.7,10.6,51,0.00,,,0.00,VWS V14.01,2013-06-21 18:17:00,
2013-06-21 14:18:00,75.5,55.2,30.30,North,8,4.7,10.6,49,0.00,,,0.00,VWS V14.01,2013-06-21 18:18:00,
2013-06-21 14:19:00,75.5,54.9,30.31,NE,55,0.0,10.6,49,0.00,,,0.00,VWS V14.01,2013-06-21 18:19:00,
2013-06-21 14:21:00,75.4,55.0,30.31,NW,323,3.0,10.6,49,0.00,,,0.00,VWS V14.01,2013-06-21 18:21:00,
2013-06-21 14:22:00,75.4,55.0,30.31,NW,315,0.0,10.6,49,0.00,,,0.00,VWS V14.01,2013-06-21 18:22:00,
2013-06-21 14:23:00,75.4,55.3,30.30,NW,315,0.0,10.6,50,0.00,,,0.00,VWS V14.01,2013-06-21 18:23:00,
2013-06-21 14:24:00,75.4,55.3,30.30,NNW,342,2.8,10.6,50,0.00,,,0.00,VWS V14.01,2013-06-21 18:24:00,
2013-06-21 14:25:00,75.4,55.2,30.30,NNW,343,1.9,10.6,50,0.00,,,0.00,VWS V14.01,2013-06-21 18:25:00,
2013-06-21 14:26:00,75.4,55.2,30.30,NW,322,3.4,10.6,50,0.00,,,0.00,VWS V14.01,2013-06-21 18:26:00,
2013-06-21 14:27:00,75.3,56.0,30.30,NW,305,4.5,10.6,51,0.00,,,0.00,VWS V14.01,2013-06-21 18:27:00,
2013-06-21 14:28:00,75.3,56.2,30.30,NW,308,4.7,10.6,52,0.00,,,0.00,VWS V14.01,2013-06-21 18:28:00,
2013-06-21 14:29:00,75.2,56.5,30.30,WNW,294,0.7,10.6,52,0.00,,,0.00,VWS V14.01,2013-06-21 18:29:00,
2013-06-21 14:30:00,75.3,56.8,30.30,WNW,294,0.0,10.6,53,0.00,,,0.00,VWS V14.01,2013-06-21 18:30:00,
2013-06-21 14:31:00,75.3,56.8,30.30,NW,305,5.6,10.6,53,0.00,,,0.00,VWS V14.01,2013-06-21 18:31:00,
2013-06-21 14:32:00,75.4,57.5,30.30,NW,309,6.9,10.6,54,0.00,,,0.00,VWS V14.01,2013-06-21 18:32:00,
2013-06-21 14:33:00,75.4,58.3,30.30,NW,305,7.8,10.6,55,0.00,,,0.00,VWS V14.01,2013-06-21 18:33:00,
2013-06-21 14:34:00,75.3,58.2,30.30,NW,304,6.7,10.6,55,0.00,,,0.00,VWS V14.01,2013-06-21 18:34:00,
2013-06-21 14:35:00,75.4,58.3,30.30,WNW,302,5.8,10.6,55,0.00,,,0.00,VWS V14.01,2013-06-21 18:35:00,
2013-06-21 14:36:00,75.3,58.0,30.30,WNW,291,0.0,10.6,55,0.00,,,0.00,VWS V14.01,2013-06-21 18:36:00,
2013-06-21 14:37:00,75.5,57.7,30.30,SW,232,5.6,14.2,54,0.00,,,0.00,VWS V14.01,2013-06-21 18:37:00,
2013-06-21 14:38:00,75.5,57.3,30.30,SW,229,0.0,14.2,53,0.00,,,0.00,VWS V14.01,2013-06-21 18:38:00,
2013-06-21 14:39:00,75.5,57.1,30.30,SW,229,0.0,14.2,53,0.00,,,0.00,VWS V14.01,2013-06-21 18:39:00,
2013-06-21 14:40:00,75.7,57.4,30.30,SW,217,11.7,14.2,53,0.00,,,0.00,VWS V14.01,2013-06-21 18:40:00,
2013-06-21 14:42:00,75.8,57.6,30.30,South,184,4.5,14.2,53,0.00,,,0.00,VWS V14.01,2013-06-21 18:42:00,
2013-06-21 14:44:00,76.0,57.3,30.30,SSE,150,0.0,14.2,52,0.00,,,0.00,VWS V14.01,2013-06-21 18:44:00,
2013-06-21 14:45:00,75.9,57.0,30.30,SSE,150,0.0,14.2,52,0.00,,,0.00,VWS V14.01,2013-06-21 18:45:00,
2013-06-21 14:46:00,76.0,56.5,30.30,SSE,150,0.0,14.2,51,0.00,,,0.00,VWS V14.01,2013-06-21 18:46:00,
2013-06-21 14:47:00,75.9,56.5,30.30,North,352,1.7,14.2,51,0.00,,,0.00,VWS V14.01,2013-06-21 18:47:00,
2013-06-21 14:48:00,76.0,55.1,30.30,NE,51,5.2,14.2,48,0.00,,,0.00,VWS V14.01,2013-06-21 18:48:00,
2013-06-21 14:50:00,75.9,55.6,30.30,SSE,162,3.2,14.2,49,0.00,,,0.00,VWS V14.01,2013-06-21 18:50:00,
2013-06-21 14:53:00,75.9,55.6,30.30,WNW,302,3.0,14.2,49,0.00,,,0.00,VWS V14.01,2013-06-21 18:53:00,
2013-06-21 14:57:00,76.1,55.4,30.30,NE,38,2.1,14.2,49,0.00,,,0.00,VWS V14.01,2013-06-21 18:57:00,
2013-06-21 15:00:00,75.9,54.2,30.30,NE,38,0.0,0.0,47,0.00,,,0.00,VWS V14.01,2013-06-21 19:00:00,
2013-06-21 15:01:00,76.0,54.1,30.30,NE,38,0.0,0.0,47,0.00,,,0.00,VWS V14.01,2013-06-21 19:01:00,
2013-06-21 15:02:00,75.9,54.0,30.30,NE,56,1.1,1.1,47,0.00,,,0.00,VWS V14.01,2013-06-21 19:02:00,
2013-06-21 15:05:00,75.8,54.4,30.30,North,10,7.1,7.8,48,0.00,,,0.00,VWS V14.01,2013-06-21 19:05:00,
2013-06-21 15:07:00,75.9,54.4,30.30,North,4,3.0,7.8,47,0.00,,,0.00,VWS V14.01,2013-06-21 19:07:00,
2013-06-21 15:10:00,75.7,53.6,30.29,North,0,4.1,8.2,46,0.00,,,0.00,VWS V14.01,2013-06-21 19:10:00,
2013-06-21 15:11:00,75.8,53.7,30.29,North,1,2.6,8.2,46,0.00,,,0.00,VWS V14.01,2013-06-21 19:11:00,
2013-06-21 15:14:00,75.8,54.5,30.29,North,0,0.0,8.2,48,0.00,,,0.00,VWS V14.01,2013-06-21 19:14:00,
2013-06-21 15:15:00,75.8,54.7,30.29,North,0,0.0,8.2,48,0.00,,,0.00,VWS V14.01,2013-06-21 19:15:00,
2013-06-21 15:24:00,75.9,54.3,30.29,North,349,3.5,10.8,47,0.00,,,0.00,VWS V14.01,2013-06-21 19:24:00,
2013-06-21 15:26:00,75.7,54.2,30.29,NNE,17,0.0,10.8,47,0.00,,,0.00,VWS V14.01,2013-06-21 19:26:00,
2013-06-21 15:29:00,75.8,54.8,30.29,NW,312,5.4,10.8,48,0.00,,,0.00,VWS V14.01,2013-06-21 19:29:00,
2013-06-21 15:30:00,75.5,58.0,30.30,SSW,194,7.6,14.2,54,0.00,,,0.00,VWS V14.01,2013-06-21 19:30:00,
2013-06-21 15:31:00,75.8,55.0,30.29,NNW,347,2.2,10.8,48,0.00,,,0.00,VWS V14.01,2013-06-21 19:31:00,
2013-06-21 15:32:00,75.8,55.3,30.29,North,6,0.0,10.8,49,0.00,,,0.00,VWS V14.01,2013-06-21 19:32:00,
2013-06-21 15:35:00,75.9,57.7,30.30,South,176,8.0,14.2,53,0.00,,,0.00,VWS V14.01,2013-06-21 19:35:00,
2013-06-21 15:36:00,76.0,55.5,30.29,North,6,0.0,10.8,49,0.00,,,0.00,VWS V14.01,2013-06-21 19:36:00,
2013-06-21 15:37:00,76.0,55.3,30.29,North,6,0.0,10.8,49,0.00,,,0.00,VWS V14.01,2013-06-21 19:37:00,
2013-06-21 15:40:00,75.9,56.0,30.30,NNW,340,7.3,14.2,50,0.00,,,0.00,VWS V14.01,2013-06-21 19:40:00,
2013-06-21 15:41:00,76.0,54.7,30.29,North,4,0.0,10.8,48,0.00,,,0.00,VWS V14.01,2013-06-21 19:41:00,
2013-06-21 15:45:00,76.0,55.1,30.29,West,274,0.0,10.8,48,0.00,,,0.00,VWS V14.01,2013-06-21 19:45:00,
2013-06-21 15:46:00,76.0,55.4,30.30,West,263,0.0,14.2,49,0.00,,,0.00,VWS V14.01,2013-06-21 19:46:00,
2013-06-21 15:48:00,76.0,55.3,30.29,NNW,329,6.3,10.8,49,0.00,,,0.00,VWS V14.01,2013-06-21 19:48:00,
2013-06-21 15:51:00,75.9,54.5,30.30,North,1,7.5,14.2,48,0.00,,,0.00,VWS V14.01,2013-06-21 19:51:00,
2013-06-21 15:56:00,75.9,54.0,30.30,North,1,1.5,7.8,46,0.00,,,0.00,VWS V14.01,2013-06-21 19:56:00,
2013-06-21 15:58:00,76.1,54.5,30.28,NW,318,0.0,10.8,47,0.00,,,0.00,VWS V14.01,2013-06-21 19:58:00,
2013-06-21 16:00:00,76.2,54.8,30.28,NNW,339,6.0,6.0,48,0.00,,,0.00,VWS V14.01,2013-06-21 20:00:00,
2013-06-21 16:01:00,75.9,54.2,30.30,North,1,5.8,8.2,47,0.00,,,0.00,VWS V14.01,2013-06-21 20:01:00,
2013-06-21 16:04:00,76.2,54.6,30.28,NNW,328,0.0,8.6,47,0.00,,,0.00,VWS V14.01,2013-06-21 20:04:00,
2013-06-21 16:06:00,75.7,54.1,30.29,North,0,2.6,8.2,47,0.00,,,0.00,VWS V14.01,2013-06-21 20:06:00,
2013-06-21 16:11:00,75.7,54.0,30.29,North,0,0.0,10.8,47,0.00,,,0.00,VWS V14.01,2013-06-21 20:11:00,
2013-06-21 16:16:00,76.9,55.3,30.28,NNW,328,0.0,8.6,47,0.00,,,0.00,VWS V14.01,2013-06-21 20:16:00,
2013-06-21 16:17:00,75.8,53.8,30.29,North,349,0.0,10.8,46,0.00,,,0.00,VWS V14.01,2013-06-21 20:17:00,
2013-06-21 16:19:00,77.0,55.6,30.28,NNW,328,0.0,8.6,48,0.00,,,0.00,VWS V14.01,2013-06-21 20:19:00,
2013-06-21 16:20:00,77.1,56.0,30.28,NNW,339,3.7,8.6,48,0.00,,,0.00,VWS V14.01,2013-06-21 20:20:00,
2013-06-21 16:21:00,77.2,56.6,30.28,NNW,338,0.0,8.6,49,0.00,,,0.00,VWS V14.01,2013-06-21 20:21:00,
2013-06-21 16:22:00,77.2,56.3,30.28,NNW,342,2.6,8.6,48,0.00,,,0.00,VWS V14.01,2013-06-21 20:22:00,
2013-06-21 16:23:00,75.8,54.8,30.29,WNW,301,1.7,10.8,48,0.00,,,0.00,VWS V14.01,2013-06-21 20:23:00,
2013-06-21 16:26:00,77.3,55.6,30.28,NW,322,0.0,8.6,47,0.00,,,0.00,VWS V14.01,2013-06-21 20:26:00,
2013-06-21 16:28:00,75.9,55.3,30.29,North,6,0.0,10.8,49,0.00,,,0.00,VWS V14.01,2013-06-21 20:28:00,
2013-06-21 16:33:00,76.0,54.6,30.29,North,4,0.0,10.8,48,0.00,,,0.00,VWS V14.01,2013-06-21 20:33:00,
2013-06-21 16:37:00,77.3,55.2,30.28,NNW,340,3.9,9.5,46,0.00,,,0.00,VWS V14.01,2013-06-21 20:37:00,
2013-06-21 16:38:00,75.9,55.0,30.29,WSW,249,1.7,10.8,48,0.00,,,0.00,VWS V14.01,2013-06-21 20:38:00,
2013-06-21 16:39:00,77.2,54.9,30.27,NW,323,0.0,9.5,46,0.00,,,0.00,VWS V14.01,2013-06-21 20:39:00,
2013-06-21 16:40:00,77.3,54.7,30.28,NW,323,0.0,9.5,46,0.00,,,0.00,VWS V14.01,2013-06-21 20:40:00,
2013-06-21 16:44:00,76.1,55.2,30.28,NW,319,0.0,10.8,48,0.00,,,0.00,VWS V14.01,2013-06-21 20:44:00,
2013-06-21 16:49:00,76.1,54.5,30.28,NW,311,0.0,10.8,47,0.00,,,0.00,VWS V14.01,2013-06-21 20:49:00,
2013-06-21 16:54:00,76.2,55.0,30.28,NNW,338,6.7,6.7,48,0.00,,,0.00,VWS V14.01,2013-06-21 20:54:00,
2013-06-21 16:55:00,76.9,55.2,30.27,NNW,340,6.0,9.5,47,0.00,,,0.00,VWS V14.01,2013-06-21 20:55:00,
2013-06-21 16:59:00,76.3,54.5,30.28,NNW,328,0.0,8.6,47,0.00,,,0.00,VWS V14.01,2013-06-21 20:59:00,
2013-06-21 17:01:00,76.5,54.4,30.27,NNW,332,0.0,0.0,46,0.00,,,0.00,VWS V14.01,2013-06-21 21:01:00,
2013-06-21 17:05:00,76.7,55.3,30.28,NNW,328,0.0,8.6,48,0.00,,,0.00,VWS V14.01,2013-06-21 21:05:00,
2013-06-21 17:06:00,76.5,55.0,30.27,NNW,339,0.0,2.4,47,0.00,,,0.00,VWS V14.01,2013-06-21 21:06:00,
2013-06-21 17:08:00,76.4,55.0,30.26,NNW,339,0.0,2.4,48,0.00,,,0.00,VWS V14.01,2013-06-21 21:08:00,
2013-06-21 17:10:00,77.0,55.5,30.28,NNW,328,0.0,8.6,47,0.00,,,0.00,VWS V14.01,2013-06-21 21:10:00,
2013-06-21 17:12:00,76.3,55.0,30.26,NNW,333,0.0,6.2,48,0.00,,,0.00,VWS V14.01,2013-06-21 21:12:00,
2013-06-21 17:16:00,77.1,56.2,30.28,NNW,335,0.0,8.6,48,0.00,,,0.00,VWS V14.01,2013-06-21 21:16:00,
2013-06-21 17:21:00,77.4,55.9,30.28,NNW,338,8.9,8.9,48,0.00,,,0.00,VWS V14.01,2013-06-21 21:21:00,
2013-06-21 17:26:00,77.4,57.0,30.28,NNW,335,0.0,9.5,50,0.00,,,0.00,VWS V14.01,2013-06-21 21:26:00,
2013-06-21 17:31:00,77.2,54.8,30.27,NW,323,0.0,9.5,46,0.00,,,0.00,VWS V14.01,2013-06-21 21:31:00,
2013-06-21 17:36:00,77.1,55.2,30.28,NW,322,0.0,9.5,47,0.00,,,0.00,VWS V14.01,2013-06-21 21:36:00,
2013-06-21 17:42:00,77.1,54.9,30.27,NW,322,0.0,9.5,46,0.00,,,0.00,VWS V14.01,2013-06-21 21:42:00,
2013-06-21 17:47:00,76.9,54.7,30.27,NNW,338,0.0,9.5,46,0.00,,,0.00,VWS V14.01,2013-06-21 21:47:00,
2013-06-21 17:52:00,76.9,54.8,30.27,NNW,332,0.0,9.5,46,0.00,,,0.00,VWS V14.01,2013-06-21 21:52:00,
2013-06-21 17:57:00,76.5,54.5,30.27,NNW,339,0.0,2.4,46,0.00,,,0.00,VWS V14.01,2013-06-21 21:57:00,
2013-06-21 18:02:00,76.5,55.1,30.26,NNW,339,0.0,2.4,48,0.00,,,0.00,VWS V14.01,2013-06-21 22:02:00,
2013-06-21 18:07:00,76.4,55.3,30.26,NNW,333,0.0,6.2,48,0.00,,,0.00,VWS V14.01,2013-06-21 22:07:00,
2013-06-21 18:12:00,76.3,55.1,30.26,NNW,333,0.0,6.2,48,0.00,,,0.00,VWS V14.01,2013-06-21 22:12:00,
2013-06-21 18:18:00,76.2,55.3,30.26,NNW,333,0.0,6.2,48,0.00,,,0.00,VWS V14.01,2013-06-21 22:18:00,
2013-06-21 18:23:00,76.2,55.2,30.26,NNW,333,0.0,6.2,48,0.00,,,0.00,VWS V14.01,2013-06-21 22:23:00,
2013-06-21 18:28:00,76.2,55.1,30.26,NNW,333,0.0,6.2,48,0.00,,,0.00,VWS V14.01,2013-06-21 22:28:00,
2013-06-21 18:33:00,76.2,55.2,30.26,NNW,333,0.0,6.2,48,0.00,,,0.00,VWS V14.01,2013-06-21 22:33:00,
2013-06-21 18:38:00,76.0,55.0,30.26,NNW,333,0.0,6.2,48,0.00,,,0.00,VWS V14.01,2013-06-21 22:38:00,
2013-06-21 18:43:00,75.8,54.5,30.26,NNW,333,0.0,6.2,48,0.00,,,0.00,VWS V14.01,2013-06-21 22:43:00,
2013-06-21 18:49:00,75.8,54.3,30.26,NNW,333,0.0,6.2,47,0.00,,,0.00,VWS V14.01,2013-06-21 22:49:00,
2013-06-21 18:54:00,75.7,54.0,30.26,NNW,333,0.0,0.0,47,0.00,,,0.00,VWS V14.01,2013-06-21 22:54:00,
2013-06-21 18:59:00,75.5,54.1,30.26,NNW,333,0.0,0.0,47,0.00,,,0.00,VWS V14.01,2013-06-21 22:59:00,
2013-06-21 19:04:00,75.7,54.8,30.26,NNW,333,0.0,0.0,48,0.00,,,0.00,VWS V14.01,2013-06-21 23:04:00,
2013-06-21 19:09:00,75.7,54.3,30.26,NNW,333,0.0,0.0,48,0.00,,,0.00,VWS V14.01,2013-06-21 23:09:00,
2013-06-21 19:14:00,75.4,54.1,30.26,NNW,333,0.0,0.0,48,0.00,,,0.00,VWS V14.01,2013-06-21 23:14:00,
2013-06-21 19:19:00,75.4,55.3,30.26,NNW,333,0.0,0.0,50,0.00,,,0.00,VWS V14.01,2013-06-21 23:19:00,
2013-06-21 19:24:00,75.4,55.6,30.26,NNW,333,0.0,0.0,50,0.00,,,0.00,VWS V14.01,2013-06-21 23:24:00,
2013-06-21 19:29:00,75.5,56.0,30.26,NNW,333,0.0,0.0,51,0.00,,,0.00,VWS V14.01,2013-06-21 23:29:00,
2013-06-21 19:34:00,75.3,55.8,30.26,NNW,333,0.0,0.0,51,0.00,,,0.00,VWS V14.01,2013-06-21 23:34:00,
2013-06-21 19:39:00,75.4,57.4,30.26,NNW,333,0.0,0.0,54,0.00,,,0.00,VWS V14.01,2013-06-21 23:39:00,
2013-06-21 19:44:00,75.4,58.4,30.26,NNW,333,0.0,0.0,56,0.00,,,0.00,VWS V14.01,2013-06-21 23:44:00,
2013-06-21 19:49:00,75.0,59.3,30.26,NNW,333,0.0,0.0,58,0.00,,,0.00,VWS V14.01,2013-06-21 23:49:00,
2013-06-21 19:54:00,74.9,59.6,30.26,NNW,333,0.0,0.0,59,0.00,,,0.00,VWS V14.01,2013-06-21 23:54:00,
2013-06-21 19:59:00,74.7,59.9,30.26,NNW,333,0.0,0.0,60,0.00,,,0.00,VWS V14.01,2013-06-21 23:59:00,
2013-06-21 20:04:00,74.3,60.1,30.26,NNW,333,0.0,0.0,61,0.00,,,0.00,VWS V14.01,2013-06-22 00:04:00,
2013-06-21 20:09:00,74.0,60.3,30.26,NNW,333,0.0,0.0,62,0.00,,,0.00,VWS V14.01,2013-06-22 00:09:00,
2013-06-21 20:14:00,73.7,60.3,30.26,NNW,333,0.0,0.0,63,0.00,,,0.00,VWS V14.01,2013-06-22 00:14:00,
2013-06-21 20:20:00,73.3,60.4,30.26,NNW,333,0.0,0.0,64,0.00,,,0.00,VWS V14.01,2013-06-22 00:20:00,
2013-06-21 20:25:00,73.0,60.5,30.26,NNW,333,0.0,0.0,65,0.00,,,0.00,VWS V14.01,2013-06-22 00:25:00,
2013-06-21 20:30:00,72.7,60.5,30.26,NNW,333,0.0,0.0,66,0.00,,,0.00,VWS V14.01,2013-06-22 00:30:00,
2013-06-21 20:35:00,72.5,60.7,30.26,NNW,333,0.0,0.0,66,0.00,,,0.00,VWS V14.01,2013-06-22 00:35:00,
2013-06-21 20:40:00,72.2,60.8,30.26,NNW,333,0.0,0.0,67,0.00,,,0.00,VWS V14.01,2013-06-22 00:40:00,
2013-06-21 20:45:00,71.9,60.8,30.25,NNW,333,0.0,0.0,68,0.00,,,0.00,VWS V14.01,2013-06-22 00:45:00,
2013-06-21 20:50:00,71.6,60.6,30.26,NNW,333,0.0,0.0,68,0.00,,,0.00,VWS V14.01,2013-06-22 00:50:00,
2013-06-21 20:55:00,71.5,60.6,30.26,NNW,333,0.0,0.0,68,0.00,,,0.00,VWS V14.01,2013-06-22 00:55:00,
2013-06-21 21:00:00,71.2,60.6,30.25,NNW,333,0.0,0.0,69,0.00,,,0.00,VWS V14.01,2013-06-22 01:00:00,
2013-06-21 21:05:00,70.9,60.6,30.25,NNW,333,7.5,8.8,70,0.00,,,0.00,VWS V14.01,2013-06-22 01:05:00,
2013-06-21 21:10:00,70.5,60.5,30.25,WNW,284,2.8,9.3,71,0.00,,,0.00,VWS V14.01,2013-06-22 01:10:00,
2013-06-21 21:15:00,70.2,60.4,30.25,West,278,1.3,9.3,71,0.00,,,0.00,VWS V14.01,2013-06-22 01:15:00,
2013-06-21 21:20:00,70.2,60.5,30.25,WSW,255,0.0,9.3,71,0.00,,,0.00,VWS V14.01,2013-06-22 01:20:00,
2013-06-21 21:25:00,70.1,60.4,30.25,WSW,255,0.0,9.3,71,0.00,,,0.00,VWS V14.01,2013-06-22 01:25:00,
2013-06-21 21:30:00,70.0,60.4,30.25,WSW,255,0.0,9.3,72,0.00,,,0.00,VWS V14.01,2013-06-22 01:30:00,
2013-06-21 21:35:00,69.8,60.4,30.25,WSW,255,0.0,9.3,72,0.00,,,0.00,VWS V14.01,2013-06-22 01:35:00,
2013-06-21 21:40:00,69.6,60.4,30.25,WSW,255,0.0,9.3,72,0.00,,,0.00,VWS V14.01,2013-06-22 01:40:00,
2013-06-21 21:45:00,69.4,60.3,30.25,WSW,255,0.0,9.3,73,0.00,,,0.00,VWS V14.01,2013-06-22 01:45:00,
2013-06-21 21:50:00,69.3,60.3,30.26,WSW,255,0.0,9.3,73,0.00,,,0.00,VWS V14.01,2013-06-22 01:50:00,
2013-06-21 21:56:00,69.1,60.2,30.26,WSW,255,0.0,0.0,73,0.00,,,0.00,VWS V14.01,2013-06-22 01:56:00,
2013-06-21 22:01:00,68.9,60.1,30.26,WSW,255,0.0,0.0,74,0.00,,,0.00,VWS V14.01,2013-06-22 02:01:00,
2013-06-21 22:06:00,68.7,59.9,30.26,WSW,255,0.0,0.0,74,0.00,,,0.00,VWS V14.01,2013-06-22 02:06:00,
2013-06-21 22:11:00,68.6,60.0,30.27,WSW,255,0.0,0.0,74,0.00,,,0.00,VWS V14.01,2013-06-22 02:11:00,
2013-06-21 22:16:00,68.5,60.0,30.28,WSW,255,0.0,0.0,74,0.00,,,0.00,VWS V14.01,2013-06-22 02:16:00,
2013-06-21 22:21:00,68.4,60.0,30.28,WSW,255,0.0,0.0,74,0.00,,,0.00,VWS V14.01,2013-06-22 02:21:00,
2013-06-21 22:26:00,68.2,60.0,30.28,WSW,255,0.0,0.0,75,0.00,,,0.00,VWS V14.01,2013-06-22 02:26:00,
2013-06-21 22:31:00,68.2,60.1,30.28,WSW,255,0.0,0.0,75,0.00,,,0.00,VWS V14.01,2013-06-22 02:31:00,
2013-06-21 22:36:00,67.9,59.8,30.28,WSW,255,0.0,0.0,75,0.00,,,0.00,VWS V14.01,2013-06-22 02:36:00,
2013-06-21 22:41:00,67.5,59.6,30.28,WSW,255,0.0,0.0,76,0.00,,,0.00,VWS V14.01,2013-06-22 02:41:00,
2013-06-21 22:46:00,67.4,59.7,30.28,WSW,255,0.0,0.0,76,0.00,,,0.00,VWS V14.01,2013-06-22 02:46:00,
2013-06-21 22:51:00,67.4,59.8,30.28,WSW,255,0.0,0.0,77,0.00,,,0.00,VWS V14.01,2013-06-22 02:51:00,
2013-06-21 22:56:00,67.4,60.0,30.28,WSW,255,0.0,0.0,77,0.00,,,0.00,VWS V14.01,2013-06-22 02:56:00,
2013-06-21 23:01:00,67.1,59.7,30.28,WSW,255,0.0,0.0,77,0.00,,,0.00,VWS V14.01,2013-06-22 03:01:00,
2013-06-21 23:06:00,66.9,59.6,30.28,WSW,255,0.0,0.0,77,0.00,,,0.00,VWS V14.01,2013-06-22 03:06:00,
2013-06-21 23:11:00,66.7,59.5,30.27,WSW,255,0.0,0.0,78,0.00,,,0.00,VWS V14.01,2013-06-22 03:11:00,
2013-06-21 23:16:00,66.7,59.6,30.27,WSW,255,0.0,0.0,78,0.00,,,0.00,VWS V14.01,2013-06-22 03:16:00,
2013-06-21 23:21:00,66.6,59.5,30.27,WSW,255,0.0,0.0,78,0.00,,,0.00,VWS V14.01,2013-06-22 03:21:00,
2013-06-21 23:26:00,66.6,59.5,30.27,WSW,255,0.0,0.0,78,0.00,,,0.00,VWS V14.01,2013-06-22 03:26:00,
2013-06-21 23:31:00,66.6,59.5,30.26,WSW,255,0.0,0.0,78,0.00,,,0.00,VWS V14.01,2013-06-22 03:31:00,
2013-06-21 23:37:00,66.5,59.4,30.26,WSW,255,0.0,0.0,78,0.00,,,0.00,VWS V14.01,2013-06-22 03:37:00,
2013-06-21 23:42:00,66.6,59.5,30.26,WSW,255,0.0,0.0,78,0.00,,,0.00,VWS V14.01,2013-06-22 03:42:00,
2013-06-21 23:47:00,66.4,59.4,30.27,WSW,255,0.0,0.0,78,0.00,,,0.00,VWS V14.01,2013-06-22 03:47:00,
2013-06-21 23:52:00,66.2,59.3,30.27,WSW,255,0.0,0.0,78,0.00,,,0.00,VWS V14.01,2013-06-22 03:52:00,
2013-06-21 23:57:00,66.2,59.5,30.26,WSW,255,0.0,0.0,79,0.00,,,0.00,VWS V14.01,2013-06-22 03:57:00,